Time;durP1;ratioP1;P1;durP2;ratioP2;P2;SDS_P1;SDS_P2;PMS_P1;PMS_P2;Temp;Humidity;BMP_temperature;BMP_pressure;BME280_temperature;BME280_humidity;BME280_pressure;Samples;Min_cycle;Max_cycle;Signal;HPM_P1;HPM_P2
2022/03/06 00:02:07;;;;;;;6.20;1.00;;;23.60;99.90;;;;;;4916974;29;20186;-69
2022/03/06 00:04:35;;;;;;;2.87;0.63;;;23.50;99.90;;;;;;4917883;29;20272;-69
2022/03/06 00:07:03;;;;;;;2.27;0.60;;;23.50;99.90;;;;;;4917834;29;20182;-70
2022/03/06 00:09:30;;;;;;;1.80;0.93;;;23.40;99.90;;;;;;4917788;29;20182;-69
2022/03/06 00:11:58;;;;;;;2.23;0.60;;;23.40;99.90;;;;;;4917778;29;20216;-69
2022/03/06 00:14:26;;;;;;;3.93;0.73;;;23.50;99.90;;;;;;4917968;29;20181;-69
2022/03/06 00:16:54;;;;;;;4.90;0.70;;;23.50;99.90;;;;;;4917969;29;20276;-69
2022/03/06 00:19:22;;;;;;;2.47;0.73;;;23.60;99.90;;;;;;4917957;29;20240;-69
2022/03/06 00:21:49;;;;;;;1.83;0.73;;;23.60;99.90;;;;;;4917955;29;20195;-69
2022/03/06 00:24:17;;;;;;;1.57;0.77;;;23.50;99.90;;;;;;4916588;29;20576;-69
2022/03/06 00:26:45;;;;;;;1.87;0.93;;;23.50;99.90;;;;;;4917816;29;20185;-70
2022/03/06 00:29:14;;;;;;;3.07;0.80;;;23.50;99.90;;;;;;4916585;29;20190;-69
2022/03/06 00:31:41;;;;;;;1.50;0.53;;;23.40;99.90;;;;;;4917937;29;20169;-69
2022/03/06 00:34:09;;;;;;;2.10;0.83;;;23.40;99.90;;;;;;4917583;29;20241;-69
2022/03/06 00:36:39;;;;;;;2.90;0.60;;;23.40;99.90;;;;;;4916626;29;20178;-69
2022/03/06 00:39:07;;;;;;;0.87;0.60;;;23.40;99.90;;;;;;4917579;29;20662;-68
2022/03/06 00:41:35;;;;;;;2.73;0.77;;;23.40;99.90;;;;;;4917678;29;20181;-69
2022/03/06 00:44:04;;;;;;;2.77;0.60;;;23.40;99.90;;;;;;4917605;29;20265;-69
2022/03/06 00:46:31;;;;;;;3.50;0.97;;;23.40;99.90;;;;;;4916313;29;20236;-71
2022/03/06 00:48:59;;;;;;;1.50;0.73;;;23.40;99.90;;;;;;4917386;29;20749;-69
2022/03/06 00:51:27;;;;;;;1.87;0.77;;;23.40;99.90;;;;;;4917757;29;20564;-69
2022/03/06 00:53:54;;;;;;;2.03;1.10;;;23.40;99.90;;;;;;4917272;29;20566;-69
2022/03/06 00:56:22;;;;;;;7.17;1.00;;;23.40;99.90;;;;;;4917423;29;20702;-69
2022/03/06 00:58:50;;;;;;;4.27;1.10;;;23.30;99.90;;;;;;4917289;29;20227;-68
2022/03/06 01:01:18;;;;;;;1.40;0.70;;;23.30;99.90;;;;;;4917129;29;20181;-69
2022/03/06 01:03:45;;;;;;;4.03;0.73;;;23.10;99.90;;;;;;4916630;29;20681;-69
2022/03/06 01:06:13;;;;;;;1.93;0.77;;;23.10;99.90;;;;;;4917139;29;20177;-69
2022/03/06 01:08:41;;;;;;;1.67;0.60;;;23.10;99.90;;;;;;4917049;29;20192;-69
2022/03/06 01:11:08;;;;;;;2.53;0.90;;;23.00;99.90;;;;;;4917312;29;20207;-70
2022/03/06 01:13:36;;;;;;;4.43;1.10;;;23.10;99.90;;;;;;4916853;29;20189;-70
2022/03/06 01:16:04;;;;;;;1.57;0.70;;;23.00;99.90;;;;;;4917191;29;20192;-69
2022/03/06 01:18:32;;;;;;;2.40;0.73;;;22.80;99.90;;;;;;4916983;29;20217;-71
2022/03/06 01:21:00;;;;;;;2.40;1.00;;;22.80;99.90;;;;;;4917235;29;20216;-69
2022/03/06 01:23:28;;;;;;;1.67;0.50;;;22.70;99.90;;;;;;4917059;29;20188;-71
2022/03/06 01:25:56;;;;;;;0.43;0.43;;;22.80;99.90;;;;;;4915733;29;20189;-69
2022/03/06 01:28:24;;;;;;;3.07;0.80;;;22.80;99.90;;;;;;4916875;29;20188;-69
2022/03/06 01:30:52;;;;;;;2.70;0.63;;;22.90;99.90;;;;;;4917045;29;20177;-71
2022/03/06 01:33:19;;;;;;;4.00;0.80;;;23.00;99.90;;;;;;4916690;29;20650;-69
2022/03/06 01:35:48;;;;;;;2.53;0.70;;;23.10;99.90;;;;;;4915514;29;20589;-69
2022/03/06 01:38:15;;;;;;;2.20;0.67;;;23.00;99.90;;;;;;4916770;29;20306;-69
2022/03/06 01:40:43;;;;;;;5.17;0.80;;;23.10;99.90;;;;;;4916837;29;20184;-70
2022/03/06 01:43:11;;;;;;;1.43;0.60;;;23.10;99.90;;;;;;4916994;29;20271;-69
2022/03/06 01:45:39;;;;;;;1.30;0.60;;;23.10;99.90;;;;;;4916931;29;20181;-69
2022/03/06 01:48:08;;;;;;;3.43;1.07;;;23.20;99.90;;;;;;4915543;29;20252;-69
2022/03/06 01:50:36;;;;;;;2.93;0.90;;;23.20;99.90;;;;;;4916643;29;20184;-69
2022/03/06 01:53:08;;;;;;;2.87;0.97;;;23.30;99.90;;;;;;4916681;29;20185;-69
2022/03/06 01:55:36;;;;;;;3.37;1.00;;;23.30;99.90;;;;;;4917253;29;20602;-69
2022/03/06 01:58:07;;;;;;;5.97;1.23;;;23.40;99.90;;;;;;4916603;29;20221;-69
2022/03/06 02:00:39;;;;;;;3.03;0.77;;;23.60;99.90;;;;;;4916857;29;20264;-69
2022/03/06 02:03:07;;;;;;;5.27;1.07;;;23.90;99.90;;;;;;4915728;29;20650;-70
2022/03/06 02:05:35;;;;;;;7.30;1.00;;;24.20;99.90;;;;;;4916532;29;20216;-69
2022/03/06 02:08:03;;;;;;;4.27;1.00;;;24.40;99.90;;;;;;4916579;29;20252;-72
2022/03/06 02:10:31;;;;;;;3.07;1.20;;;24.60;99.90;;;;;;4916749;29;20189;-71
2022/03/06 02:12:58;;;;;;;4.90;0.83;;;24.70;99.90;;;;;;4916498;29;20529;-70
2022/03/06 02:15:27;;;;;;;3.27;1.10;;;24.70;99.90;;;;;;4919411;29;20196;-68
2022/03/06 02:17:54;;;;;;;2.37;0.70;;;24.70;99.90;;;;;;4917547;29;20177;-70
2022/03/06 02:20:25;;;;;;;3.50;0.80;;;24.80;99.90;;;;;;4919844;29;20193;-69
2022/03/06 02:22:56;;;;;;;3.03;0.90;;;24.90;99.90;;;;;;4920257;29;20181;-69
2022/03/06 02:25:41;;;;;;;2.73;0.90;;;25.10;99.90;;;;;;4919739;29;20189;-71
2022/03/06 02:28:10;;;;;;;4.13;0.93;;;25.30;99.90;;;;;;4920369;29;20181;-70
2022/03/06 02:30:40;;;;;;;6.43;0.80;;;25.70;99.90;;;;;;4936859;29;20213;-70
2022/03/06 02:33:13;;;;;;;3.13;0.77;;;25.90;99.90;;;;;;4937786;29;20174;-70
2022/03/06 02:35:41;;;;;;;1.67;0.63;;;26.20;99.90;;;;;;4927349;28;20213;-71
2022/03/06 02:38:09;;;;;;;2.90;0.70;;;26.60;99.90;;;;;;4919139;29;20272;-69
2022/03/06 02:40:38;;;;;;;2.93;0.83;;;26.40;99.90;;;;;;4919710;29;20686;-69
2022/03/06 02:43:07;;;;;;;2.27;0.67;;;26.10;99.90;;;;;;4919844;29;20190;-68
2022/03/06 02:45:35;;;;;;;3.30;1.07;;;25.70;99.90;;;;;;4919683;29;20609;-69
2022/03/06 02:48:03;;;;;;;5.50;1.00;;;25.80;99.90;;;;;;4919244;29;20558;-71
2022/03/06 02:50:35;;;;;;;3.63;0.80;;;25.80;99.90;;;;;;4919467;29;20265;-69
2022/03/06 02:53:06;;;;;;;3.73;1.13;;;25.50;99.90;;;;;;4919191;29;20237;-69
2022/03/06 02:55:34;;;;;;;2.10;0.90;;;25.70;99.90;;;;;;4919736;29;20213;-71
2022/03/06 02:58:01;;;;;;;4.00;1.30;;;25.50;99.90;;;;;;4918826;29;20233;-70
2022/03/06 03:00:29;;;;;;;4.13;1.10;;;25.40;99.90;;;;;;4919658;29;20188;-70
2022/03/06 03:02:57;;;;;;;2.20;1.10;;;25.20;99.90;;;;;;4919210;29;20579;-70
2022/03/06 03:05:26;;;;;;;1.80;1.00;;;25.20;99.90;;;;;;4919334;29;20523;-70
2022/03/06 03:07:54;;;;;;;4.20;1.23;;;25.00;99.90;;;;;;4917673;29;20280;-72
2022/03/06 03:10:25;;;;;;;2.10;1.00;;;25.10;99.90;;;;;;4919317;29;20189;-71
2022/03/06 03:12:53;;;;;;;5.83;1.10;;;25.20;99.90;;;;;;4919161;29;20677;-70
2022/03/06 03:15:21;;;;;;;3.70;1.20;;;25.30;99.90;;;;;;4919217;29;20669;-69
2022/03/06 03:17:49;;;;;;;2.50;0.97;;;25.30;99.90;;;;;;4918818;29;20185;-71
2022/03/06 03:20:17;;;;;;;2.67;1.23;;;25.30;99.90;;;;;;4919271;29;20263;-70
2022/03/06 03:22:46;;;;;;;3.70;1.37;;;25.20;99.90;;;;;;4919488;29;20639;-71
2022/03/06 03:25:13;;;;;;;3.13;1.30;;;25.20;99.90;;;;;;4918265;29;20184;-69
2022/03/06 03:27:41;;;;;;;0.90;0.80;;;25.00;99.90;;;;;;4917213;29;20556;-70
2022/03/06 03:30:11;;;;;;;2.47;1.27;;;25.00;99.90;;;;;;4917302;29;20204;-69
2022/03/06 03:32:39;;;;;;;4.53;1.33;;;24.80;99.90;;;;;;4919203;29;20209;-70
2022/03/06 03:35:08;;;;;;;3.10;1.40;;;24.70;99.90;;;;;;4918628;29;20177;-69
2022/03/06 03:37:36;;;;;;;1.67;0.97;;;24.50;99.90;;;;;;4918495;29;20213;-69
2022/03/06 03:40:06;;;;;;;2.93;1.43;;;24.60;99.90;;;;;;4918587;29;20217;-72
2022/03/06 03:42:35;;;;;;;6.57;1.80;;;24.40;99.90;;;;;;4918742;29;20176;-68
2022/03/06 03:45:03;;;;;;;2.90;1.20;;;24.20;99.90;;;;;;4918621;29;20193;-70
2022/03/06 03:47:31;;;;;;;4.77;1.43;;;24.10;99.90;;;;;;4918333;29;20240;-69
2022/03/06 03:49:59;;;;;;;3.63;1.70;;;24.10;99.90;;;;;;4918146;29;20199;-69
2022/03/06 03:52:27;;;;;;;2.37;1.80;;;24.10;99.90;;;;;;4918606;29;20173;-72
2022/03/06 03:54:55;;;;;;;4.03;1.80;;;23.90;99.90;;;;;;4918485;29;20220;-71
2022/03/06 03:57:25;;;;;;;4.07;2.20;;;23.70;99.90;;;;;;4917835;29;20221;-70
2022/03/06 03:59:53;;;;;;;3.63;2.07;;;23.80;99.90;;;;;;4918154;29;20254;-70
2022/03/06 04:02:21;;;;;;;5.30;2.47;;;23.80;99.90;;;;;;4918454;29;20185;-70
2022/03/06 04:04:49;;;;;;;3.87;1.60;;;24.00;99.90;;;;;;4918312;29;20184;-71
2022/03/06 04:07:17;;;;;;;2.90;1.83;;;24.20;99.90;;;;;;4918337;29;20313;-72
2022/03/06 04:09:44;;;;;;;4.20;1.93;;;24.20;99.90;;;;;;4917552;29;20204;-69
2022/03/06 04:12:12;;;;;;;4.20;1.73;;;24.00;99.90;;;;;;4918175;29;20173;-70
2022/03/06 04:14:40;;;;;;;5.33;2.00;;;24.00;99.90;;;;;;4918219;29;20301;-70
2022/03/06 04:17:08;;;;;;;3.87;2.00;;;24.00;99.90;;;;;;4918296;29;20213;-71
2022/03/06 04:19:36;;;;;;;4.60;2.13;;;23.90;99.90;;;;;;4917655;29;20216;-70
2022/03/06 04:22:04;;;;;;;3.57;1.70;;;23.90;99.90;;;;;;4917845;29;20233;-71
2022/03/06 04:24:31;;;;;;;3.30;1.87;;;24.00;99.90;;;;;;4917740;29;20185;-69
2022/03/06 04:26:59;;;;;;;6.33;2.03;;;23.90;99.90;;;;;;4917553;29;20199;-69
2022/03/06 04:29:27;;;;;;;3.33;1.60;;;23.80;99.90;;;;;;4917611;29;20272;-69
2022/03/06 04:31:55;;;;;;;3.27;1.63;;;23.90;99.90;;;;;;4917528;29;20178;-69
2022/03/06 04:34:22;;;;;;;2.40;1.50;;;24.20;99.90;;;;;;4917537;29;20195;-69
2022/03/06 04:36:50;;;;;;;2.40;1.10;;;24.40;99.90;;;;;;4917399;29;20557;-69
2022/03/06 04:39:18;;;;;;;1.03;0.93;;;24.70;99.90;;;;;;4917057;29;20374;-69
2022/03/06 04:41:46;;;;;;;3.13;1.17;;;24.90;99.90;;;;;;4917699;29;20181;-70
2022/03/06 04:44:13;;;;;;;3.13;1.00;;;24.80;99.90;;;;;;4917755;29;20196;-70
2022/03/06 04:46:41;;;;;;;1.90;0.70;;;24.60;99.90;;;;;;4916089;29;20565;-70
2022/03/06 04:49:09;;;;;;;1.60;0.60;;;24.40;99.90;;;;;;4915928;29;20189;-70
2022/03/06 04:51:37;;;;;;;1.03;0.70;;;24.30;99.90;;;;;;4917697;29;20272;-69
2022/03/06 04:54:05;;;;;;;1.93;0.70;;;24.20;99.90;;;;;;4917190;29;20180;-71
2022/03/06 04:56:32;;;;;;;0.67;0.43;;;24.30;99.90;;;;;;4917204;29;20224;-70
2022/03/06 04:59:00;;;;;;;0.67;0.40;;;24.40;99.90;;;;;;4917011;29;20620;-69
2022/03/06 05:01:28;;;;;;;0.80;0.53;;;24.40;99.90;;;;;;4917547;29;20249;-69
2022/03/06 05:03:56;;;;;;;0.60;0.40;;;24.30;99.90;;;;;;4917371;29;20246;-69
2022/03/06 05:06:24;;;;;;;0.70;0.40;;;24.20;99.90;;;;;;4917323;29;20177;-69
2022/03/06 05:08:52;;;;;;;0.77;0.47;;;24.10;99.90;;;;;;4916953;29;20189;-70
2022/03/06 05:11:19;;;;;;;1.67;0.50;;;24.00;99.90;;;;;;4915966;29;20267;-70
2022/03/06 05:13:48;;;;;;;2.17;0.50;;;23.80;99.90;;;;;;4916810;29;20198;-70
2022/03/06 05:16:16;;;;;;;0.60;0.43;;;23.60;99.90;;;;;;4917113;29;20639;-71
2022/03/06 05:18:44;;;;;;;2.27;0.70;;;23.40;99.90;;;;;;4916623;29;20247;-70
2022/03/06 05:21:12;;;;;;;1.87;1.10;;;23.20;99.90;;;;;;4916937;29;20196;-71
2022/03/06 05:23:39;;;;;;;2.43;0.83;;;23.00;99.90;;;;;;4917109;29;20214;-72
2022/03/06 05:26:07;;;;;;;3.00;1.27;;;22.80;99.90;;;;;;4917047;29;20217;-71
2022/03/06 05:28:36;;;;;;;2.73;1.17;;;22.80;99.90;;;;;;4916301;29;20685;-71
2022/03/06 05:31:03;;;;;;;1.77;1.20;;;22.80;99.90;;;;;;4916973;29;20251;-73
2022/03/06 05:33:31;;;;;;;1.33;0.73;;;22.80;99.90;;;;;;4916735;29;20192;-71
2022/03/06 05:35:59;;;;;;;1.73;0.77;;;22.80;99.90;;;;;;4916863;29;20181;-71
2022/03/06 05:38:26;;;;;;;4.07;0.83;;;22.90;99.90;;;;;;4916434;29;20722;-72
2022/03/06 05:40:54;;;;;;;1.80;0.80;;;23.00;99.90;;;;;;4916752;29;20181;-71
2022/03/06 05:43:22;;;;;;;0.73;0.60;;;23.00;99.90;;;;;;4916916;29;20185;-73
2022/03/06 05:45:51;;;;;;;2.37;0.70;;;23.10;99.90;;;;;;4916873;29;20263;-71
2022/03/06 05:48:20;;;;;;;1.63;0.70;;;23.20;99.90;;;;;;4916096;29;20548;-71
2022/03/06 05:50:48;;;;;;;2.03;0.80;;;23.30;99.90;;;;;;4920548;29;20201;-72
2022/03/06 05:53:16;;;;;;;1.37;0.90;;;23.30;99.90;;;;;;4920740;29;20181;-72
2022/03/06 05:55:44;;;;;;;0.90;0.70;;;23.60;99.90;;;;;;4920812;29;20209;-70
2022/03/06 05:58:12;;;;;;;2.20;0.97;;;23.50;99.90;;;;;;4920006;29;20287;-72
2022/03/06 06:00:40;;;;;;;1.33;0.77;;;23.60;99.90;;;;;;4920065;29;20208;-72
2022/03/06 06:03:07;;;;;;;1.57;0.80;;;23.60;99.90;;;;;;4920581;29;20557;-70
2022/03/06 06:05:35;;;;;;;1.23;0.97;;;23.70;99.90;;;;;;4920169;29;20525;-71
2022/03/06 06:08:03;;;;;;;0.80;0.67;;;23.70;99.90;;;;;;4920456;29;20599;-72
2022/03/06 06:10:31;;;;;;;0.83;0.67;;;23.80;99.90;;;;;;4920112;29;20189;-72
2022/03/06 06:12:58;;;;;;;1.50;0.60;;;23.90;99.90;;;;;;4920184;29;20184;-71
2022/03/06 06:15:26;;;;;;;0.90;0.50;;;23.70;99.90;;;;;;4920177;29;20185;-70
2022/03/06 06:17:54;;;;;;;3.40;0.70;;;23.80;99.90;;;;;;4920031;29;20241;-70
2022/03/06 06:20:21;;;;;;;0.87;0.60;;;23.70;99.90;;;;;;4920192;29;20223;-72
2022/03/06 06:22:53;;;;;;;2.20;0.40;;;23.60;99.90;;;;;;4919727;29;20280;-72
2022/03/06 06:25:20;;;;;;;1.00;0.60;;;23.70;99.90;;;;;;4920147;29;20654;-72
2022/03/06 06:27:48;;;;;;;0.40;0.40;;;23.60;99.90;;;;;;4920037;29;20186;-72
2022/03/06 06:30:16;;;;;;;0.90;0.40;;;23.60;99.90;;;;;;4919795;29;20188;-72
2022/03/06 06:32:44;;;;;;;1.83;0.30;;;23.50;99.90;;;;;;4919946;29;20180;-71
2022/03/06 06:35:11;;;;;;;0.40;0.30;;;23.50;99.90;;;;;;4920028;29;20236;-71
2022/03/06 06:37:39;;;;;;;1.10;0.30;;;23.60;99.90;;;;;;4919585;29;20256;-73
2022/03/06 06:40:08;;;;;;;1.60;0.27;;;23.60;99.90;;;;;;4919775;29;20733;-71
2022/03/06 06:42:35;;;;;;;2.93;0.30;;;23.60;99.90;;;;;;4919674;29;20264;-71
2022/03/06 06:45:04;;;;;;;0.63;0.30;;;23.70;99.90;;;;;;4919614;29;20203;-71
2022/03/06 06:47:31;;;;;;;1.60;0.30;;;23.80;99.90;;;;;;4919038;29;20181;-72
2022/03/06 06:49:59;;;;;;;0.77;0.37;;;23.80;99.90;;;;;;4919371;29;20240;-73
2022/03/06 06:52:27;;;;;;;1.80;0.53;;;24.00;99.90;;;;;;4918926;29;20213;-72
2022/03/06 06:54:55;;;;;;;0.77;0.40;;;24.30;99.90;;;;;;4919052;29;20193;-71
2022/03/06 06:57:22;;;;;;;0.80;0.40;;;24.30;99.90;;;;;;4918814;29;20257;-70
2022/03/06 06:59:50;;;;;;;0.67;0.50;;;24.30;99.90;;;;;;4917916;29;20681;-73
2022/03/06 07:02:18;;;;;;;0.53;0.30;;;24.30;99.90;;;;;;4917141;29;20189;-72
2022/03/06 07:04:45;;;;;;;2.03;0.37;;;24.20;99.90;;;;;;4918772;29;20189;-70
2022/03/06 07:07:13;;;;;;;0.60;0.30;;;24.40;99.90;;;;;;4918767;29;20181;-69
2022/03/06 07:09:41;;;;;;;1.03;0.40;;;24.30;99.90;;;;;;4918645;29;20257;-71
2022/03/06 07:12:11;;;;;;;1.10;0.47;;;24.40;99.90;;;;;;4918543;29;20193;-72
2022/03/06 07:14:39;;;;;;;4.27;0.40;;;24.40;99.90;;;;;;4918655;29;20195;-70
2022/03/06 07:17:07;;;;;;;1.47;0.30;;;24.30;99.90;;;;;;4918227;29;20220;-70
2022/03/06 07:19:35;;;;;;;0.40;0.30;;;24.40;99.90;;;;;;4918623;29;20217;-70
2022/03/06 07:22:02;;;;;;;1.30;0.53;;;24.40;99.90;;;;;;4918515;29;20276;-70
2022/03/06 07:24:30;;;;;;;0.63;0.30;;;24.30;99.90;;;;;;4918521;29;20261;-70
2022/03/06 07:26:58;;;;;;;4.93;0.40;;;24.20;99.90;;;;;;4918381;29;20185;-70
2022/03/06 07:29:25;;;;;;;0.93;0.20;;;24.20;99.90;;;;;;4918040;29;20651;-71
2022/03/06 07:31:53;;;;;;;2.03;0.40;;;24.40;99.90;;;;;;4918181;29;20184;-71
2022/03/06 07:34:21;;;;;;;1.13;0.50;;;24.40;99.90;;;;;;4916251;29;20561;-71
2022/03/06 07:36:48;;;;;;;1.50;0.40;;;24.40;99.90;;;;;;4918399;29;20642;-71
2022/03/06 07:39:16;;;;;;;0.37;0.30;;;24.40;99.90;;;;;;4918099;29;20209;-69
2022/03/06 07:41:44;;;;;;;0.50;0.30;;;24.30;99.90;;;;;;4918395;29;20181;-68
2022/03/06 07:44:12;;;;;;;3.70;0.50;;;24.30;99.90;;;;;;4915515;29;20664;-69
2022/03/06 07:46:41;;;;;;;1.73;0.60;;;24.20;99.90;;;;;;4917359;29;20189;-70
2022/03/06 07:49:09;;;;;;;3.33;0.60;;;24.20;99.90;;;;;;4918274;29;20185;-70
2022/03/06 07:51:37;;;;;;;1.47;0.50;;;24.10;99.90;;;;;;4917675;29;20635;-70
2022/03/06 07:54:07;;;;;;;1.03;0.70;;;24.00;99.90;;;;;;4918449;29;20228;-70
2022/03/06 07:56:35;;;;;;;2.03;0.60;;;24.00;99.90;;;;;;4917115;29;20282;-70
2022/03/06 07:59:03;;;;;;;4.20;0.80;;;23.90;99.90;;;;;;4918464;29;20311;-70
2022/03/06 08:01:30;;;;;;;3.60;0.70;;;23.90;99.90;;;;;;4917998;29;20225;-71
2022/03/06 08:03:58;;;;;;;1.67;0.50;;;23.90;99.90;;;;;;4916407;29;20177;-70
2022/03/06 08:06:26;;;;;;;1.40;0.50;;;23.80;99.90;;;;;;4917766;29;20243;-70
2022/03/06 08:08:54;;;;;;;2.13;0.80;;;23.80;99.90;;;;;;4917790;29;20195;-70
2022/03/06 08:11:21;;;;;;;1.50;0.63;;;23.70;99.90;;;;;;4917450;29;20228;-69
2022/03/06 08:13:49;;;;;;;3.20;0.47;;;23.70;99.90;;;;;;4916707;29;20188;-70
2022/03/06 08:16:17;;;;;;;3.70;0.60;;;23.70;99.90;;;;;;4918095;29;20185;-70
2022/03/06 08:18:44;;;;;;;1.27;0.57;;;23.70;99.90;;;;;;4916255;29;20205;-70
2022/03/06 08:21:12;;;;;;;1.93;0.60;;;23.60;99.90;;;;;;4918119;29;20240;-69
2022/03/06 08:23:40;;;;;;;3.17;0.80;;;23.60;99.90;;;;;;4917058;29;20185;-71
2022/03/06 08:26:07;;;;;;;4.30;0.77;;;23.50;99.90;;;;;;4917173;29;20195;-70
2022/03/06 08:28:35;;;;;;;3.83;0.70;;;23.50;99.90;;;;;;4918172;29;20182;-70
2022/03/06 08:31:03;;;;;;;1.13;0.53;;;23.40;99.90;;;;;;4917562;29;20182;-70
2022/03/06 08:33:31;;;;;;;2.37;1.30;;;23.40;99.90;;;;;;4915895;29;20670;-71
2022/03/06 08:35:59;;;;;;;2.80;0.90;;;23.30;99.90;;;;;;4917697;29;20192;-71
2022/03/06 08:38:26;;;;;;;1.93;1.00;;;23.30;99.90;;;;;;4917398;29;20239;-71
2022/03/06 08:40:54;;;;;;;2.37;1.00;;;23.30;99.90;;;;;;4917124;29;20195;-70
2022/03/06 08:43:22;;;;;;;9.20;1.60;;;23.30;99.90;;;;;;4915774;29;20256;-70
2022/03/06 08:45:50;;;;;;;8.03;1.83;;;23.20;99.90;;;;;;4917197;29;20189;-70
2022/03/06 08:48:17;;;;;;;6.50;1.57;;;23.20;99.90;;;;;;4917001;29;20195;-70
2022/03/06 08:50:45;;;;;;;5.23;1.80;;;23.20;99.90;;;;;;4916501;29;20192;-70
2022/03/06 08:53:13;;;;;;;6.47;2.90;;;23.20;99.90;;;;;;4917325;29;20181;-70
2022/03/06 08:55:40;;;;;;;10.33;3.40;;;23.20;99.90;;;;;;4917306;29;20560;-71
2022/03/06 08:58:08;;;;;;;11.97;3.43;;;23.20;99.90;;;;;;4915833;29;20244;-71
2022/03/06 09:00:36;;;;;;;8.40;2.90;;;23.20;99.90;;;;;;4917278;29;20185;-70
2022/03/06 09:03:04;;;;;;;9.60;3.10;;;23.20;99.90;;;;;;4916540;29;20185;-71
2022/03/06 09:05:31;;;;;;;12.57;3.67;;;23.10;99.90;;;;;;4916833;29;20228;-70
2022/03/06 09:08:00;;;;;;;12.57;3.23;;;23.10;99.90;;;;;;4917167;29;20196;-71
2022/03/06 09:10:28;;;;;;;10.43;3.50;;;23.00;99.90;;;;;;4916773;29;20181;-72
2022/03/06 09:13:00;;;;;;;10.97;4.37;;;23.00;99.90;;;;;;4916280;29;20526;-71
2022/03/06 09:15:28;;;;;;;9.87;3.70;;;23.00;99.90;;;;;;4916728;29;20174;-69
2022/03/06 09:17:56;;;;;;;13.03;4.27;;;22.90;99.90;;;;;;4916432;29;20185;-71
2022/03/06 09:20:25;;;;;;;9.80;3.90;;;22.90;99.90;;;;;;4916327;29;20294;-71
2022/03/06 09:22:53;;;;;;;13.83;3.70;;;22.90;99.90;;;;;;4915832;29;20190;-70
2022/03/06 09:25:21;;;;;;;8.90;3.20;;;22.90;99.90;;;;;;4915947;29;20663;-71
2022/03/06 09:27:49;;;;;;;9.47;3.53;;;22.80;99.90;;;;;;4916271;29;20184;-70
2022/03/06 09:30:16;;;;;;;10.93;3.20;;;22.80;99.90;;;;;;4916295;29;20184;-70
2022/03/06 09:32:44;;;;;;;9.80;3.43;;;22.80;99.90;;;;;;4916084;29;20658;-70
2022/03/06 09:35:12;;;;;;;9.77;3.33;;;22.70;99.90;;;;;;4916660;29;20712;-72
2022/03/06 09:37:40;;;;;;;12.47;2.90;;;22.70;99.90;;;;;;4917357;29;20188;-70
2022/03/06 09:40:08;;;;;;;9.67;3.60;;;22.70;99.90;;;;;;4915869;29;20240;-71
2022/03/06 09:42:36;;;;;;;9.63;3.77;;;22.70;99.90;;;;;;4916563;29;20181;-72
2022/03/06 09:45:08;;;;;;;7.50;3.00;;;22.60;99.90;;;;;;4916730;29;20562;-72
2022/03/06 09:47:37;;;;;;;8.13;2.30;;;22.60;99.90;;;;;;4916422;29;20258;-71
2022/03/06 09:50:07;;;;;;;6.83;2.60;;;22.50;99.90;;;;;;4910576;29;20543;-72
2022/03/06 09:52:35;;;;;;;7.73;2.67;;;22.50;99.90;;;;;;4917052;29;20180;-71
2022/03/06 09:55:03;;;;;;;6.47;2.47;;;22.50;99.90;;;;;;4916741;29;20245;-71
2022/03/06 09:57:31;;;;;;;7.03;2.33;;;22.50;99.90;;;;;;4916384;29;20315;-71
2022/03/06 09:59:58;;;;;;;12.77;2.53;;;22.60;99.90;;;;;;4916730;29;20212;-72
2022/03/06 10:02:26;;;;;;;10.20;2.03;;;22.60;99.90;;;;;;4916148;29;20267;-71
2022/03/06 10:04:54;;;;;;;10.33;2.67;;;22.70;99.90;;;;;;4916241;29;20192;-72
2022/03/06 10:07:21;;;;;;;10.47;2.57;;;22.70;99.90;;;;;;4915442;29;20271;-71
2022/03/06 10:09:54;;;;;;;13.97;2.87;;;22.70;99.90;;;;;;4916409;29;20192;-71
2022/03/06 10:12:33;;;;;;;15.87;3.63;;;22.80;99.90;;;;;;4915940;29;20664;-71
2022/03/06 10:15:06;;;;;;;7.40;2.30;;;22.80;99.90;;;;;;4916565;29;20632;-70
2022/03/06 10:17:35;;;;;;;13.10;2.10;;;22.80;99.90;;;;;;4916471;29;20177;-71
2022/03/06 10:20:11;;;;;;;7.60;1.83;;;22.80;99.90;;;;;;4915735;29;20299;-71
2022/03/06 10:22:41;;;;;;;14.27;2.77;;;22.80;99.90;;;;;;4916241;29;20220;-72
2022/03/06 10:25:16;;;;;;;11.73;2.43;;;22.80;99.90;;;;;;4914889;29;20189;-71
2022/03/06 10:27:49;;;;;;;7.03;1.57;;;22.80;99.90;;;;;;4916588;29;20215;-71
2022/03/06 10:30:34;;;;;;;11.10;2.40;;;22.80;99.90;;;;;;4916635;29;20179;-71
2022/03/06 10:33:04;;;;;;;6.17;1.53;;;22.80;99.90;;;;;;4914908;29;20184;-71
2022/03/06 10:35:42;;;;;;;7.07;1.63;;;22.80;99.90;;;;;;4918205;29;20685;-71
2022/03/06 10:38:22;;;;;;;7.13;1.70;;;22.90;99.90;;;;;;4919482;29;20189;-71
2022/03/06 10:40:51;;;;;;;5.53;1.40;;;22.90;99.90;;;;;;4918485;29;20204;-71
2022/03/06 10:43:33;;;;;;;11.70;1.80;;;22.90;99.90;;;;;;4919909;29;20181;-71
2022/03/06 10:46:17;;;;;;;6.87;1.70;;;22.80;99.90;;;;;;4919508;29;20203;-70
2022/03/06 10:48:55;;;;;;;8.90;1.60;;;22.80;99.90;;;;;;4901105;29;20177;-71
2022/03/06 10:51:23;;;;;;;9.87;1.93;;;22.80;99.90;;;;;;4916583;29;20665;-72
2022/03/06 10:53:58;;;;;;;8.10;1.73;;;22.80;99.90;;;;;;4919581;29;20600;-71
2022/03/06 10:56:27;;;;;;;8.97;1.87;;;22.80;99.90;;;;;;4918035;29;20701;-71
2022/03/06 10:58:58;;;;;;;16.43;2.47;;;22.70;99.90;;;;;;4919738;29;20220;-71
2022/03/06 11:01:26;;;;;;;8.83;1.30;;;22.70;99.90;;;;;;4919120;29;20181;-70
2022/03/06 11:03:54;;;;;;;9.73;1.70;;;22.70;99.90;;;;;;4918867;29;20215;-72
2022/03/06 11:06:24;;;;;;;12.17;2.47;;;22.70;99.90;;;;;;4918934;29;20193;-72
2022/03/06 11:08:53;;;;;;;9.80;2.60;;;22.70;99.90;;;;;;4883836;29;20232;-73
2022/03/06 11:11:21;;;;;;;14.67;2.00;;;22.70;99.90;;;;;;4905471;29;20203;-72
2022/03/06 11:13:50;;;;;;;9.13;2.10;;;22.60;99.90;;;;;;4918925;29;20537;-72
2022/03/06 11:16:18;;;;;;;8.97;1.80;;;22.60;99.90;;;;;;4919121;29;20216;-72
2022/03/06 11:18:46;;;;;;;7.97;1.93;;;22.60;99.90;;;;;;4919037;29;20224;-72
2022/03/06 11:21:15;;;;;;;19.40;2.37;;;22.70;99.90;;;;;;4918740;29;20643;-72
2022/03/06 11:23:49;;;;;;;12.27;2.50;;;22.60;99.90;;;;;;4919308;29;20214;-72
2022/03/06 11:26:16;;;;;;;7.60;2.10;;;22.60;99.90;;;;;;4919389;29;20178;-72
2022/03/06 11:29:14;;;;;;;10.87;1.93;;;22.60;99.90;;;;;;4900319;29;20218;-72
2022/03/06 11:31:50;;;;;;;11.67;2.70;;;22.60;99.90;;;;;;4906932;29;20193;-72
2022/03/06 11:34:29;;;;;;;8.57;1.60;;;22.60;99.90;;;;;;4918688;29;20270;-73
2022/03/06 11:36:58;;;;;;;16.53;2.10;;;22.60;99.90;;;;;;4900417;29;20665;-73
2022/03/06 11:39:32;;;;;;;14.77;2.93;;;22.60;99.90;;;;;;4914657;29;20222;-73
2022/03/06 11:42:01;;;;;;;6.87;1.80;;;22.60;99.90;;;;;;4915405;29;20268;-71
2022/03/06 11:44:48;;;;;;;11.43;2.80;;;22.60;99.90;;;;;;4918878;29;20212;-72
2022/03/06 11:47:22;;;;;;;12.00;2.13;;;22.60;99.90;;;;;;4899292;29;20549;-71
2022/03/06 11:50:01;;;;;;;11.00;2.30;;;22.50;99.90;;;;;;4904633;29;20182;-72
2022/03/06 11:52:34;;;;;;;9.57;1.60;;;22.60;99.90;;;;;;4918659;29;20181;-72
2022/03/06 11:55:05;;;;;;;11.47;2.00;;;22.50;99.90;;;;;;4917465;29;20569;-72
2022/03/06 11:57:43;;;;;;;10.17;1.97;;;22.50;99.90;;;;;;4917877;29;20248;-72
2022/03/06 12:00:20;;;;;;;17.37;2.37;;;22.50;99.90;;;;;;4918234;29;20270;-72
2022/03/06 12:02:50;;;;;;;14.27;1.87;;;22.50;99.90;;;;;;4915106;29;20309;-72
2022/03/06 12:05:20;;;;;;;13.77;1.63;;;22.50;99.90;;;;;;4918335;29;20671;-72
2022/03/06 12:07:48;;;;;;;12.47;2.30;;;22.50;99.90;;;;;;4918504;29;20185;-72
2022/03/06 12:10:18;;;;;;;15.17;2.20;;;22.50;99.90;;;;;;4918380;29;20193;-73
2022/03/06 12:13:16;;;;;;;11.67;2.03;;;22.50;99.90;;;;;;4917965;29;20189;-73
2022/03/06 12:15:59;;;;;;;9.07;1.90;;;22.50;99.90;;;;;;4918106;29;20185;-72
2022/03/06 12:18:27;;;;;;;8.20;1.53;;;22.50;99.90;;;;;;4916889;29;20224;-73
2022/03/06 12:20:55;;;;;;;12.87;1.80;;;22.40;99.90;;;;;;4918452;29;20236;-72
2022/03/06 12:23:28;;;;;;;14.57;2.27;;;22.40;99.90;;;;;;4918207;29;20619;-72
2022/03/06 12:26:00;;;;;;;13.50;2.10;;;22.40;99.90;;;;;;4918294;29;20305;-71
2022/03/06 12:28:40;;;;;;;14.60;2.40;;;22.40;99.90;;;;;;4918179;29;20182;-72
2022/03/06 12:31:33;;;;;;;13.00;2.27;;;22.40;99.90;;;;;;4917984;29;20190;-72
2022/03/06 12:34:21;;;;;;;9.50;1.60;;;22.40;99.90;;;;;;4918020;29;20235;-73
2022/03/06 12:36:56;;;;;;;11.20;2.10;;;22.40;99.90;;;;;;4917663;29;20212;-72
2022/03/06 12:39:24;;;;;;;12.83;2.37;;;22.40;99.90;;;;;;4917720;29;20219;-73
2022/03/06 12:41:52;;;;;;;16.20;2.30;;;22.40;99.90;;;;;;4918064;29;20215;-73
2022/03/06 12:44:25;;;;;;;14.23;2.13;;;22.40;99.90;;;;;;4917557;29;20198;-73
2022/03/06 12:46:53;;;;;;;17.30;2.03;;;22.40;99.90;;;;;;4917917;29;20260;-73
2022/03/06 12:49:23;;;;;;;13.80;2.20;;;22.40;99.90;;;;;;4917880;29;20193;-72
2022/03/06 12:51:53;;;;;;;10.40;1.90;;;22.40;99.90;;;;;;4916545;29;20244;-71
2022/03/06 12:54:23;;;;;;;8.37;1.77;;;22.40;99.90;;;;;;4917455;29;20651;-72
2022/03/06 12:56:57;;;;;;;10.73;1.63;;;22.40;99.90;;;;;;4916401;29;20826;-73